createdAt,value
2023-04-09T00:00:30.879Z,102240.91
2023-04-09T00:03:00.298Z,102241.47
2023-04-09T00:05:28.423Z,102234.13
2023-04-09T00:07:57.508Z,102239.69
2023-04-09T00:10:25.925Z,102235.09
2023-04-09T00:12:53.915Z,102238.81
2023-04-09T00:15:30.545Z,102230.81
2023-04-09T00:18:00.854Z,102236.16
2023-04-09T00:20:28.810Z,102229.19
2023-04-09T00:22:56.732Z,102228.63
2023-04-09T00:25:24.706Z,102230.16
2023-04-09T00:27:52.738Z,102227.25
2023-04-09T00:30:21.415Z,102226.13
2023-04-09T00:32:49.706Z,102224.47
2023-04-09T00:35:19.091Z,102223.66
2023-04-09T00:37:47.090Z,102224.97
2023-04-09T00:40:15.642Z,102217.97
2023-04-09T00:42:43.701Z,102217.66
2023-04-09T00:45:12.277Z,102218.25
2023-04-09T00:47:40.406Z,102216.66
2023-04-09T00:50:09.688Z,102222.41
2023-04-09T00:52:39.343Z,102212.97
2023-04-09T00:55:07.904Z,102209.13
2023-04-09T00:57:35.902Z,102214.47
2023-04-09T01:00:04.750Z,102220.56
2023-04-09T01:02:33.016Z,102220.97
2023-04-09T01:05:01.353Z,102219.19
2023-04-09T01:07:54.284Z,102212.47
2023-04-09T01:10:36.023Z,102212.31
2023-04-09T01:13:12.907Z,102217.38
2023-04-09T01:15:49.525Z,102218.13
2023-04-09T01:18:29.463Z,102214.22
2023-04-09T01:21:03.691Z,102217.16
2023-04-09T01:23:48.239Z,102223.75
2023-04-09T01:26:30.819Z,102219.53
2023-04-09T01:29:03.063Z,102218.97
2023-04-09T01:31:35.319Z,102217.91
2023-04-09T01:34:06.054Z,102221.34
2023-04-09T01:36:36.715Z,102218.09
2023-04-09T01:39:05.391Z,102220.84
2023-04-09T01:41:36.465Z,102215.31
2023-04-09T01:44:10.156Z,102216.78
2023-04-09T01:46:41.260Z,102224.00
2023-04-09T01:49:10.927Z,102224.19
2023-04-09T01:51:39.222Z,102228.22
2023-04-09T01:54:07.184Z,102227.63
2023-04-09T01:56:43.227Z,102225.81
2023-04-09T01:59:12.884Z,102230.66
2023-04-09T02:01:47.370Z,102241.31
2023-04-09T02:04:24.539Z,102244.63
2023-04-09T02:07:04.740Z,102248.47
2023-04-09T02:09:37.423Z,102244.16
2023-04-09T02:12:11.788Z,102242.16
2023-04-09T02:14:42.827Z,102247.06
2023-04-09T02:17:10.981Z,102245.16
2023-04-09T02:19:43.114Z,102246.03
2023-04-09T02:22:12.462Z,102243.56
2023-04-09T02:24:41.515Z,102247.34
2023-04-09T02:27:10.153Z,102240.56
2023-04-09T02:29:38.403Z,102242.97
2023-04-09T02:32:08.201Z,102244.59
2023-04-09T02:34:36.209Z,102253.47
2023-04-09T02:37:04.269Z,102247.47
2023-04-09T02:39:32.138Z,102254.25
2023-04-09T02:42:00.976Z,102252.75
2023-04-09T02:44:29.127Z,102243.59
2023-04-09T02:46:57.100Z,102247.47
2023-04-09T02:49:26.581Z,102244.50
2023-04-09T02:51:54.462Z,102237.09
2023-04-09T02:54:22.484Z,102244.31
2023-04-09T02:56:50.568Z,102248.84
2023-04-09T02:59:18.473Z,102250.66
2023-04-09T03:01:46.502Z,102247.41
2023-04-09T03:04:14.794Z,102242.44
2023-04-09T03:06:44.194Z,102237.31
2023-04-09T03:09:12.083Z,102246.28
2023-04-09T03:11:40.016Z,102243.94
2023-04-09T03:14:07.948Z,102240.78
2023-04-09T03:16:35.896Z,102243.72
2023-04-09T03:19:03.885Z,102240.94
2023-04-09T03:21:31.970Z,102244.34
2023-04-09T03:24:02.148Z,102247.88
2023-04-09T03:26:35.989Z,102239.78
2023-04-09T03:29:03.980Z,102242.44
2023-04-09T03:31:32.153Z,102235.31
2023-04-09T03:34:00.206Z,102231.19
2023-04-09T03:36:28.867Z,102229.00
2023-04-09T03:38:56.826Z,102228.66
2023-04-09T03:41:27.520Z,102231.69
2023-04-09T03:43:55.390Z,102229.25
2023-04-09T03:46:23.372Z,102230.13
2023-04-09T03:48:51.817Z,102228.19
2023-04-09T03:51:20.462Z,102223.63
2023-04-09T03:53:48.384Z,102227.56
2023-04-09T03:56:16.499Z,102223.38
2023-04-09T03:58:45.931Z,102224.22
2023-04-09T04:01:13.807Z,102223.00
2023-04-09T04:03:41.828Z,102225.66
2023-04-09T04:06:09.919Z,102227.75
2023-04-09T04:08:37.977Z,102229.63
2023-04-09T04:11:06.474Z,102230.56
2023-04-09T04:13:34.606Z,102234.66
2023-04-09T04:16:07.675Z,102237.94
2023-04-09T04:18:35.863Z,102234.09
2023-04-09T04:21:04.014Z,102233.47
2023-04-09T04:23:32.081Z,102231.47
2023-04-09T04:26:00.229Z,102240.03
2023-04-09T04:28:28.149Z,102230.91
2023-04-09T04:30:56.125Z,102236.66
2023-04-09T04:33:25.553Z,102230.78
2023-04-09T04:35:53.754Z,102231.09
2023-04-09T04:38:21.702Z,102237.94
2023-04-09T04:40:49.663Z,102241.75
2023-04-09T04:43:17.564Z,102243.69
2023-04-09T04:45:45.533Z,102244.94
2023-04-09T04:48:13.468Z,102242.31
2023-04-09T04:50:42.776Z,102247.66
2023-04-09T04:53:10.825Z,102247.59
2023-04-09T04:55:40.364Z,102245.97
2023-04-09T04:58:08.420Z,102252.56
2023-04-09T05:00:36.514Z,102246.34
2023-04-09T05:03:04.739Z,102251.41
2023-04-09T05:05:32.817Z,102251.59
2023-04-09T05:08:02.170Z,102254.47
2023-04-09T05:10:30.852Z,102249.38
2023-04-09T05:12:58.747Z,102246.25
2023-04-09T05:15:27.045Z,102251.50
2023-04-09T05:17:55.268Z,102252.63
2023-04-09T05:20:23.296Z,102247.09
2023-04-09T05:22:51.201Z,102250.72
2023-04-09T05:25:20.959Z,102253.75
2023-04-09T05:27:48.689Z,102258.44
2023-04-09T05:30:16.693Z,102257.19
2023-04-09T05:32:44.646Z,102248.81
2023-04-09T05:35:12.686Z,102260.44
2023-04-09T05:37:40.771Z,102260.22
2023-04-09T05:40:10.382Z,102260.00
2023-04-09T05:42:39.482Z,102265.31
2023-04-09T05:45:09.963Z,102266.91
2023-04-09T05:47:37.980Z,102262.53
2023-04-09T05:50:07.454Z,102270.66
2023-04-09T05:52:35.373Z,102273.06
2023-04-09T05:55:03.468Z,102278.75
2023-04-09T05:57:31.799Z,102278.56
2023-04-09T06:00:01.094Z,102272.78
2023-04-09T06:02:30.335Z,102277.25
2023-04-09T06:04:58.378Z,102279.69
2023-04-09T06:07:26.381Z,102279.03
2023-04-09T06:09:54.684Z,102278.47
2023-04-09T06:12:22.696Z,102270.25
2023-04-09T06:14:50.708Z,102281.84
2023-04-09T06:17:20.044Z,102273.69
2023-04-09T06:19:48.014Z,102273.13
2023-04-09T06:22:15.971Z,102279.91
2023-04-09T06:24:43.902Z,102281.91
2023-04-09T06:27:12.109Z,102282.22
2023-04-09T06:29:40.093Z,102276.78
2023-04-09T06:32:08.152Z,102284.22
2023-04-09T06:34:37.473Z,102279.31
2023-04-09T06:37:05.438Z,102283.03
2023-04-09T06:39:33.522Z,102283.22
2023-04-09T06:42:01.585Z,102288.69
2023-04-09T06:44:29.507Z,102287.50
2023-04-09T06:46:57.640Z,102292.41
2023-04-09T06:49:25.693Z,102287.50
2023-04-09T06:51:55.016Z,102290.06
2023-04-09T06:54:23.051Z,102295.16
2023-04-09T06:56:51.970Z,102291.66
2023-04-09T06:59:19.900Z,102296.38
2023-04-09T07:01:48.357Z,102301.69
2023-04-09T07:04:16.711Z,102302.81
2023-04-09T07:06:44.669Z,102302.28
2023-04-09T07:09:14.058Z,102299.59
2023-04-09T07:11:42.061Z,102300.88
2023-04-09T07:14:09.953Z,102307.06
2023-04-09T07:16:37.958Z,102300.50
2023-04-09T07:19:07.412Z,102306.41
2023-04-09T07:21:35.603Z,102308.28
2023-04-09T07:24:03.623Z,102311.56
2023-04-09T07:26:33.375Z,102305.22
2023-04-09T07:29:02.116Z,102304.88
2023-04-09T07:31:30.093Z,102306.72
2023-04-09T07:33:58.089Z,102307.81
2023-04-09T07:36:26.640Z,102310.53
2023-04-09T07:38:54.908Z,102306.19
2023-04-09T07:41:23.191Z,102306.88
2023-04-09T07:43:52.502Z,102311.91
2023-04-09T07:46:21.780Z,102313.97
2023-04-09T07:48:50.848Z,102318.34
2023-04-09T07:51:19.398Z,102313.00
2023-04-09T07:53:47.664Z,102313.00
2023-04-09T07:56:15.725Z,102316.75
2023-04-09T07:58:43.669Z,102318.13
2023-04-09T08:01:12.987Z,102325.75
2023-04-09T08:03:41.720Z,102324.25
2023-04-09T08:06:09.732Z,102321.78
2023-04-09T08:08:37.755Z,102322.59
2023-04-09T08:11:07.164Z,102316.81
2023-04-09T08:13:35.282Z,102331.06
2023-04-09T08:16:03.881Z,102326.81
2023-04-09T08:18:33.268Z,102334.56
2023-04-09T08:21:06.335Z,102338.25
2023-04-09T08:23:34.325Z,102333.22
2023-04-09T08:26:02.234Z,102334.94
2023-04-09T08:28:30.196Z,102332.81
2023-04-09T08:30:58.368Z,102334.53
2023-04-09T08:33:26.836Z,102329.47
2023-04-09T08:35:56.174Z,102325.66
2023-04-09T08:38:24.205Z,102325.38
2023-04-09T08:40:52.232Z,102326.13
2023-04-09T08:43:37.294Z,102332.00
2023-04-09T08:46:15.539Z,102330.66
2023-04-09T08:48:45.920Z,102342.91
2023-04-09T08:51:20.432Z,102341.59
2023-04-09T08:53:52.636Z,102335.44
2023-04-09T08:56:21.272Z,102336.13
2023-04-09T08:58:49.626Z,102339.41
2023-04-09T09:01:25.969Z,102332.34
2023-04-09T09:04:01.556Z,102335.63
2023-04-09T09:06:33.690Z,102324.34
2023-04-09T09:09:06.438Z,102327.31
2023-04-09T09:11:35.526Z,102316.69
2023-04-09T09:14:06.657Z,102327.16
2023-04-09T09:16:36.319Z,102326.97
2023-04-09T09:19:04.070Z,102321.50
2023-04-09T09:21:34.797Z,102328.50
2023-04-09T09:24:03.125Z,102327.53
2023-04-09T09:26:32.054Z,102323.44
2023-04-09T09:29:05.737Z,102327.75
2023-04-09T09:31:49.373Z,102331.69
2023-04-09T09:34:18.236Z,102330.75
2023-04-09T09:36:48.364Z,102333.34
2023-04-09T09:39:18.292Z,102330.34
2023-04-09T09:41:48.812Z,102330.03
2023-04-09T09:44:33.865Z,102333.94
2023-04-09T09:47:05.431Z,102331.72
2023-04-09T09:49:33.467Z,102321.31
2023-04-09T09:52:10.358Z,102323.44
2023-04-09T09:54:43.085Z,102329.19
2023-04-09T09:57:13.640Z,102316.94
2023-04-09T09:59:47.926Z,102323.09
2023-04-09T10:02:21.792Z,102314.56
2023-04-09T10:04:52.568Z,102324.38
2023-04-09T10:07:24.001Z,102319.50
2023-04-09T10:09:55.342Z,102324.75
2023-04-09T10:12:25.913Z,102313.50
2023-04-09T10:14:56.029Z,102314.59
2023-04-09T10:17:24.015Z,102306.03
2023-04-09T10:20:05.363Z,102305.53
2023-04-09T10:22:37.231Z,102313.28
2023-04-09T10:25:06.684Z,102303.84
2023-04-09T10:27:34.754Z,102306.63
2023-04-09T10:30:03.092Z,102298.03
2023-04-09T10:32:37.341Z,102297.63
2023-04-09T10:35:06.886Z,102303.50
2023-04-09T10:37:37.243Z,102301.97
2023-04-09T10:40:06.026Z,102311.91
2023-04-09T10:42:42.007Z,102299.91
2023-04-09T10:45:12.012Z,102300.25
2023-04-09T10:47:42.508Z,102308.88
2023-04-09T10:50:22.439Z,102305.47
2023-04-09T10:52:57.402Z,102312.22
2023-04-09T10:55:37.342Z,102300.88
2023-04-09T10:58:07.195Z,102308.78
2023-04-09T11:00:40.710Z,102313.84
2023-04-09T11:03:25.219Z,102310.34
2023-04-09T11:05:59.350Z,102309.56
2023-04-09T11:08:32.736Z,102304.00
2023-04-09T11:11:02.274Z,102303.56
2023-04-09T11:13:32.767Z,102300.94
2023-04-09T11:16:03.982Z,102303.88
2023-04-09T11:18:34.483Z,102295.31
2023-04-09T11:21:04.550Z,102297.28
2023-04-09T11:23:34.706Z,102296.28
2023-04-09T11:26:02.967Z,102291.94
2023-04-09T11:28:31.002Z,102297.09
2023-04-09T11:30:59.062Z,102301.78
2023-04-09T11:33:34.297Z,102297.94
2023-04-09T11:36:02.541Z,102289.22
2023-04-09T11:38:33.992Z,102297.84
2023-04-09T11:41:03.177Z,102293.56
2023-04-09T11:43:31.178Z,102293.00
2023-04-09T11:46:00.496Z,102293.13
2023-04-09T11:48:28.614Z,102279.03
2023-04-09T11:50:57.069Z,102279.38
2023-04-09T11:53:31.335Z,102283.78
2023-04-09T11:56:00.814Z,102274.47
2023-04-09T11:58:28.943Z,102275.59
2023-04-09T12:01:00.058Z,102274.41
2023-04-09T12:03:32.822Z,102275.28
2023-04-09T12:06:03.792Z,102274.78
2023-04-09T12:08:34.456Z,102259.50
2023-04-09T12:11:11.759Z,102267.31
2023-04-09T12:13:43.101Z,102261.97
2023-04-09T12:16:11.806Z,102261.69
2023-04-09T12:18:41.133Z,102255.72
2023-04-09T12:21:09.216Z,102259.53
2023-04-09T12:23:37.220Z,102256.69
2023-04-09T12:26:05.649Z,102255.28
2023-04-09T12:28:34.981Z,102255.06
2023-04-09T12:31:03.500Z,102255.16
2023-04-09T12:33:32.257Z,102262.69
2023-04-09T12:36:00.545Z,102248.03
2023-04-09T12:38:28.655Z,102250.88
2023-04-09T12:40:56.642Z,102241.47
2023-04-09T12:43:24.607Z,102239.16
2023-04-09T12:45:53.926Z,102239.84
2023-04-09T12:48:22.005Z,102235.50
2023-04-09T12:50:49.952Z,102227.47
2023-04-09T12:53:18.344Z,102220.91
2023-04-09T12:55:46.846Z,102228.56
2023-04-09T12:58:14.785Z,102225.78
2023-04-09T13:00:43.092Z,102227.63
2023-04-09T13:03:12.693Z,102226.19
2023-04-09T13:05:40.688Z,102222.44
2023-04-09T13:08:08.803Z,102223.84
2023-04-09T13:10:37.499Z,102223.75
2023-04-09T13:13:06.131Z,102216.88
2023-04-09T13:15:34.144Z,102220.84
2023-04-09T13:18:02.111Z,102225.56
2023-04-09T13:20:31.605Z,102216.16
2023-04-09T13:22:59.528Z,102212.91
2023-04-09T13:25:27.580Z,102206.66
2023-04-09T13:27:55.562Z,102202.66
2023-04-09T13:30:23.977Z,102197.41
2023-04-09T13:32:52.049Z,102201.41
2023-04-09T13:35:20.062Z,102196.13
2023-04-09T13:37:49.427Z,102199.81
2023-04-09T13:40:17.708Z,102202.25
2023-04-09T13:42:45.656Z,102199.13
2023-04-09T13:45:13.648Z,102200.13
2023-04-09T13:47:42.968Z,102196.16
2023-04-09T13:50:13.129Z,102201.19
2023-04-09T13:52:41.143Z,102185.09
2023-04-09T13:55:11.515Z,102183.25
2023-04-09T13:57:39.563Z,102185.66
2023-04-09T14:00:09.670Z,102182.97
2023-04-09T14:02:37.711Z,102184.31
2023-04-09T14:05:06.812Z,102170.66
2023-04-09T14:07:34.716Z,102173.94
2023-04-09T14:10:02.841Z,102175.13
2023-04-09T14:12:32.410Z,102169.56
2023-04-09T14:15:00.384Z,102169.56
2023-04-09T14:17:28.415Z,102159.09
2023-04-09T14:19:57.873Z,102166.25
2023-04-09T14:22:26.415Z,102167.28
2023-04-09T14:24:54.378Z,102159.03
2023-04-09T14:27:22.406Z,102169.78
2023-04-09T14:29:52.489Z,102164.22
2023-04-09T14:32:20.678Z,102161.91
2023-04-09T14:34:48.651Z,102159.03
2023-04-09T14:37:17.223Z,102167.16
2023-04-09T14:39:45.258Z,102159.03
2023-04-09T14:42:13.235Z,102158.72
2023-04-09T14:44:41.290Z,102156.91
2023-04-09T14:47:10.723Z,102149.75
2023-04-09T14:49:38.674Z,102146.41
2023-04-09T14:52:07.377Z,102150.31
2023-04-09T14:54:37.495Z,102145.09
2023-04-09T14:57:05.733Z,102152.47
2023-04-09T14:59:33.756Z,102142.84
2023-04-09T15:02:01.956Z,102144.00
2023-04-09T15:04:31.478Z,102138.47
2023-04-09T15:06:59.593Z,102145.63
2023-04-09T15:09:27.585Z,102140.63
2023-04-09T15:11:56.056Z,102141.78
2023-04-09T15:14:24.747Z,102139.94
2023-04-09T15:16:55.723Z,102134.28
2023-04-09T15:19:23.733Z,102137.22
2023-04-09T15:21:53.050Z,102143.84
2023-04-09T15:24:21.013Z,102143.44
2023-04-09T15:26:49.693Z,102139.78
2023-04-09T15:29:17.685Z,102140.47
2023-04-09T15:31:45.771Z,102143.72
2023-04-09T15:34:13.826Z,102142.31
2023-04-09T15:36:41.806Z,102140.84
2023-04-09T15:39:11.698Z,102140.59
2023-04-09T15:41:39.800Z,102130.41
2023-04-09T15:44:08.238Z,102136.09
2023-04-09T15:46:36.361Z,102131.19
2023-04-09T15:49:04.936Z,102145.63
2023-04-09T15:51:32.889Z,102136.47
2023-04-09T15:54:00.867Z,102135.81
2023-04-09T15:56:30.268Z,102143.16
2023-04-09T15:58:58.834Z,102140.78
2023-04-09T16:01:26.992Z,102139.72
2023-04-09T16:03:55.148Z,102145.91
2023-04-09T16:06:23.244Z,102137.22
2023-04-09T16:08:51.364Z,102139.44
2023-04-09T16:11:19.646Z,102141.47
2023-04-09T16:13:49.189Z,102143.22
2023-04-09T16:16:17.154Z,102143.09
2023-04-09T16:18:45.198Z,102146.25
2023-04-09T16:21:13.484Z,102143.97
2023-04-09T16:23:41.954Z,102134.00
2023-04-09T16:26:11.668Z,102143.63
2023-04-09T16:28:39.804Z,102144.81
2023-04-09T16:31:09.204Z,102150.56
2023-04-09T16:33:37.187Z,102146.66
2023-04-09T16:36:05.805Z,102148.84
2023-04-09T16:38:33.849Z,102144.34
2023-04-09T16:41:01.926Z,102139.22
2023-04-09T16:43:31.611Z,102136.34
2023-04-09T16:45:59.615Z,102136.34
2023-04-09T16:48:28.979Z,102136.13
2023-04-09T16:50:56.905Z,102140.28
2023-04-09T16:53:25.022Z,102138.03
2023-04-09T16:55:53.508Z,102135.19
2023-04-09T16:58:21.543Z,102131.88
2023-04-09T17:00:51.858Z,102129.13
2023-04-09T17:03:20.173Z,102134.19
2023-04-09T17:05:49.743Z,102133.38
2023-04-09T17:08:18.335Z,102129.03
2023-04-09T17:10:46.358Z,102135.50
2023-04-09T17:13:14.485Z,102144.81
2023-04-09T17:15:42.707Z,102134.47
2023-04-09T17:18:10.941Z,102136.81
2023-04-09T17:20:41.460Z,102143.38
2023-04-09T17:23:10.834Z,102147.47
2023-04-09T17:25:42.255Z,102144.16
2023-04-09T17:28:10.222Z,102141.81
2023-04-09T17:30:38.206Z,102152.75
2023-04-09T17:33:06.446Z,102140.50
2023-04-09T17:35:37.508Z,102142.22
2023-04-09T17:38:05.812Z,102146.81
2023-04-09T17:40:35.308Z,102147.66
2023-04-09T17:43:03.236Z,102149.59
2023-04-09T17:45:31.460Z,102144.03
2023-04-09T17:47:59.926Z,102148.13
2023-04-09T17:50:28.052Z,102147.25
2023-04-09T17:52:56.884Z,102144.34
2023-04-09T17:55:25.468Z,102145.66
2023-04-09T17:57:55.039Z,102142.41
2023-04-09T18:00:23.603Z,102142.63
2023-04-09T18:02:53.689Z,102144.00
2023-04-09T18:05:23.101Z,102146.88
2023-04-09T18:07:52.205Z,102141.97
2023-04-09T18:10:21.789Z,102144.13
2023-04-09T18:12:49.813Z,102140.91
2023-04-09T18:15:19.518Z,102145.47
2023-04-09T18:17:47.472Z,102133.25
2023-04-09T18:20:16.153Z,102140.06
2023-04-09T18:22:44.505Z,102142.78
2023-04-09T18:25:12.604Z,102139.53
2023-04-09T18:27:40.581Z,102148.47
2023-04-09T18:30:10.933Z,102148.25
2023-04-09T18:32:40.337Z,102149.19
2023-04-09T18:35:09.267Z,102141.22
2023-04-09T18:37:37.971Z,102157.56
2023-04-09T18:40:07.871Z,102160.22
2023-04-09T18:42:36.066Z,102161.13
2023-04-09T18:45:04.238Z,102163.69
2023-04-09T18:47:32.329Z,102167.88
2023-04-09T18:50:02.378Z,102169.72
2023-04-09T18:52:33.497Z,102169.34
2023-04-09T18:55:01.488Z,102177.19
2023-04-09T18:57:29.537Z,102173.28
2023-04-09T18:59:57.572Z,102173.94
2023-04-09T19:02:25.698Z,102170.03
2023-04-09T19:04:55.654Z,102171.38
2023-04-09T19:07:25.231Z,102180.66
2023-04-09T19:09:53.269Z,102176.38
2023-04-09T19:12:21.342Z,102175.91
2023-04-09T19:14:49.416Z,102177.09
2023-04-09T19:17:17.658Z,102171.63
2023-04-09T19:19:45.640Z,102180.16
2023-04-09T19:22:14.218Z,102181.84
2023-04-09T19:24:45.934Z,102180.03
2023-04-09T19:27:14.041Z,102180.03
2023-04-09T19:29:42.092Z,102181.34
2023-04-09T19:32:12.784Z,102178.69
2023-04-09T19:34:40.917Z,102168.91
2023-04-09T19:37:09.046Z,102173.81
2023-04-09T19:39:37.192Z,102178.56
2023-04-09T19:42:06.736Z,102175.41
2023-04-09T19:44:34.731Z,102181.50
2023-04-09T19:47:02.813Z,102187.50
2023-04-09T19:49:30.883Z,102181.88
2023-04-09T19:51:58.965Z,102193.84
2023-04-09T19:54:27.350Z,102185.81
2023-04-09T19:56:55.947Z,102186.38
2023-04-09T19:59:26.218Z,102196.19
2023-04-09T20:01:54.626Z,102184.53
2023-04-09T20:04:24.583Z,102190.91
2023-04-09T20:06:52.795Z,102181.13
2023-04-09T20:09:23.863Z,102179.28
2023-04-09T20:11:52.350Z,102188.09
2023-04-09T20:14:20.424Z,102181.34
2023-04-09T20:16:49.845Z,102190.00
2023-04-09T20:19:19.808Z,102189.38
2023-04-09T20:21:56.787Z,102188.97
2023-04-09T20:24:26.909Z,102205.31
2023-04-09T20:26:55.228Z,102199.69
2023-04-09T20:29:23.248Z,102205.16
2023-04-09T20:31:52.672Z,102207.13
2023-04-09T20:34:20.767Z,102199.63
2023-04-09T20:36:48.738Z,102191.94
2023-04-09T20:39:18.145Z,102190.06
2023-04-09T20:41:46.423Z,102183.31
2023-04-09T20:44:14.424Z,102182.81
2023-04-09T20:46:42.431Z,102175.94
2023-04-09T20:49:12.230Z,102180.59
2023-04-09T20:51:40.477Z,102187.94
2023-04-09T20:54:08.527Z,102192.78
2023-04-09T20:56:36.516Z,102182.16
2023-04-09T20:59:04.631Z,102192.63
2023-04-09T21:01:33.270Z,102180.13
2023-04-09T21:04:01.838Z,102181.94
2023-04-09T21:06:31.300Z,102183.03
2023-04-09T21:08:59.933Z,102177.66
2023-04-09T21:11:28.059Z,102178.75
2023-04-09T21:13:56.021Z,102180.19
2023-04-09T21:16:25.954Z,102174.16
2023-04-09T21:18:54.171Z,102176.59
2023-04-09T21:21:22.381Z,102178.63
2023-04-09T21:23:51.734Z,102171.69
2023-04-09T21:26:19.781Z,102169.84
2023-04-09T21:28:50.345Z,102166.50
2023-04-09T21:31:18.584Z,102168.53
2023-04-09T21:33:46.546Z,102165.34
2023-04-09T21:36:14.579Z,102166.13
2023-04-09T21:38:42.605Z,102165.72
2023-04-09T21:41:11.928Z,102164.06
2023-04-09T21:43:40.023Z,102164.47
2023-04-09T21:46:08.107Z,102170.19
2023-04-09T21:48:37.248Z,102168.31
2023-04-09T21:51:10.927Z,102170.38
2023-04-09T21:53:39.227Z,102170.91
2023-04-09T21:56:08.411Z,102177.53
2023-04-09T21:58:37.761Z,102177.00
2023-04-09T22:01:13.029Z,102184.06
2023-04-09T22:03:46.966Z,102182.91
2023-04-09T22:06:14.900Z,102184.81
2023-04-09T22:08:54.952Z,102181.09
2023-04-09T22:11:28.103Z,102181.53
2023-04-09T22:13:58.614Z,102178.09
2023-04-09T22:16:27.111Z,102184.84
2023-04-09T22:18:56.185Z,102184.75
2023-04-09T22:21:24.542Z,102185.78
2023-04-09T22:23:52.521Z,102178.22
2023-04-09T22:26:21.509Z,102172.50
2023-04-09T22:28:50.153Z,102173.16
2023-04-09T22:31:19.929Z,102175.28
2023-04-09T22:33:47.922Z,102187.19
2023-04-09T22:36:15.962Z,102179.38
2023-04-09T22:38:43.889Z,102185.28
2023-04-09T22:41:11.823Z,102185.38
2023-04-09T22:43:39.755Z,102181.19
2023-04-09T22:46:08.015Z,102183.22
2023-04-09T22:48:44.187Z,102195.78
2023-04-09T22:51:13.520Z,102189.66
2023-04-09T22:53:41.456Z,102194.72
2023-04-09T22:56:10.192Z,102197.69
2023-04-09T22:58:39.255Z,102198.66
2023-04-09T23:01:08.183Z,102190.22
2023-04-09T23:03:37.522Z,102192.03
2023-04-09T23:06:06.058Z,102188.81
2023-04-09T23:08:34.044Z,102191.06
2023-04-09T23:11:02.040Z,102186.00
2023-04-09T23:13:30.000Z,102185.28
2023-04-09T23:15:57.961Z,102188.25
2023-04-09T23:18:26.097Z,102191.03
2023-04-09T23:20:55.363Z,102193.25
2023-04-09T23:23:23.381Z,102186.50
2023-04-09T23:25:51.285Z,102192.00
2023-04-09T23:28:19.181Z,102184.41
2023-04-09T23:30:47.122Z,102182.59
2023-04-09T23:33:15.044Z,102185.13
2023-04-09T23:35:43.095Z,102183.31
2023-04-09T23:38:12.446Z,102177.09
2023-04-09T23:40:40.454Z,102182.88
2023-04-09T23:43:08.805Z,102176.44
2023-04-09T23:45:36.958Z,102180.06
2023-04-09T23:48:08.841Z,102177.19
2023-04-09T23:50:39.756Z,102180.63
2023-04-09T23:53:07.860Z,102179.31
2023-04-09T23:55:40.682Z,102176.81
2023-04-09T23:58:09.691Z,102173.91
